PWSweather.com
Personal Weather Stations
Station Observations
SHAHALMS1
Eftra, Falkenberg, HA

EftraFalkenberg, HA

Lat: 56.85, Lon: 12.65

Elevation: 140

Station Type:

http://hem.passagen.se/risarp101

Latest ConditionsUpdated 7:45:02 AM GMT+1 Wednesday, Jan 16, 2019
Currently Today's Max Today's Min Today's Average
Temperature 38.8°F3.8°C 40.3°F4.6°C 38.7°F3.7°C 39.2°F4.0°C
Dew Point 36.7°F2.6°C 37.0°F2.8°C 35.7°F2.1°C 36.4°F2.4°C
Winds 4.7 mph S7.6 kmh S 8.0 mph -12.9 kmh - - 4.5 mph 7.2 kmh
Wind Gusts 12.5 mph20.1 kmh 16.1 mph25.9 kmh - -
Humidity 92% 92% 87% 90%
Pressure 29.45 in997.3 mb 29.47 in998.0 mb 29.45 in997.3 mb -
Hour Temp Dew Point Humidity Winds Wind Gusts Pressure Precip Precip Rate Daily Precip Total
07:45 AM 38.8°F3.8°C 36.7°F2.6°C 92% 4.7 mph S7.6 kmh S 12.5 mph20.1 kmh 29.45 in997.3 mb 0.00 in0.0 mm 0.00 in0.0 mm 0.00 in0.0 mm
07:30 AM 38.8°F3.8°C 36.7°F2.6°C 92% 3.8 mph S6.1 kmh S 9.3 mph15.0 kmh 29.45 in997.3 mb 0.00 in0.0 mm 0.00 in0.0 mm 0.00 in0.0 mm
07:15 AM 38.7°F3.7°C 36.5°F2.5°C 92% 3.5 mph S5.6 kmh S 9.7 mph15.6 kmh 29.45 in997.3 mb 0.00 in0.0 mm 0.00 in0.0 mm 0.00 in0.0 mm
07:14 AM 38.8°F3.8°C 36.7°F2.6°C 92% 5.0 mph SW8.0 kmh SW 9.7 mph15.6 kmh 29.45 in997.3 mb 0.00 in0.0 mm 0.00 in0.0 mm 0.00 in0.0 mm
07:13 AM 38.8°F3.8°C 36.4°F2.4°C 91% 4.9 mph WSW7.9 kmh WSW 9.7 mph15.6 kmh 29.45 in997.3 mb 0.00 in0.0 mm 0.00 in0.0 mm 0.00 in0.0 mm
07:12 AM 38.8°F3.8°C 36.4°F2.4°C 91% 4.8 mph WSW7.7 kmh WSW 9.7 mph15.6 kmh 29.45 in997.3 mb 0.00 in0.0 mm 0.00 in0.0 mm 0.00 in0.0 mm
07:11 AM 38.8°F3.8°C 36.7°F2.6°C 92% 6.5 mph W10.5 kmh W 9.7 mph15.6 kmh 29.45 in997.3 mb 0.00 in0.0 mm 0.00 in0.0 mm 0.00 in0.0 mm
07:10 AM 38.8°F3.8°C 36.7°F2.6°C 92% 7.9 mph W12.7 kmh W 9.7 mph15.6 kmh 29.45 in997.3 mb 0.00 in0.0 mm 0.00 in0.0 mm 0.00 in0.0 mm
07:00 AM 38.8°F3.8°C 36.4°F2.4°C 91% 5.8 mph SW9.3 kmh SW 11.5 mph18.5 kmh 29.45 in997.3 mb 0.00 in0.0 mm 0.00 in0.0 mm 0.00 in0.0 mm
06:45 AM 39.0°F3.9°C 36.6°F2.6°C 91% 7.1 mph SSW11.4 kmh SSW 14.0 mph22.5 kmh 29.47 in998.0 mb 0.00 in0.0 mm 0.00 in0.0 mm 0.00 in0.0 mm
06:30 AM 39.2°F4.0°C 36.8°F2.7°C 91% 6.9 mph SW11.1 kmh SW 12.9 mph20.8 kmh 29.47 in998.0 mb 0.00 in0.0 mm 0.00 in0.0 mm 0.00 in0.0 mm
06:15 AM 39.2°F4.0°C 36.8°F2.7°C 91% 5.6 mph SW9.0 kmh SW 12.9 mph20.8 kmh 29.47 in998.0 mb 0.00 in0.0 mm 0.00 in0.0 mm 0.00 in0.0 mm
06:00 AM 39.2°F4.0°C 36.5°F2.5°C 90% 3.6 mph WSW5.8 kmh WSW 9.3 mph15.0 kmh 29.47 in998.0 mb 0.00 in0.0 mm 0.00 in0.0 mm 0.00 in0.0 mm
05:45 AM 39.2°F4.0°C 36.5°F2.5°C 90% 5.2 mph W8.4 kmh W 9.7 mph15.6 kmh 29.47 in998.0 mb 0.00 in0.0 mm 0.00 in0.0 mm 0.00 in0.0 mm
05:30 AM 39.2°F4.0°C 36.5°F2.5°C 90% 2.4 mph WSW3.9 kmh WSW 7.2 mph11.6 kmh 29.47 in998.0 mb 0.00 in0.0 mm 0.00 in0.0 mm 0.00 in0.0 mm
05:15 AM 39.2°F4.0°C 36.5°F2.5°C 90% 0.7 mph W1.1 kmh W 6.1 mph9.8 kmh 29.47 in998.0 mb 0.00 in0.0 mm 0.00 in0.0 mm 0.00 in0.0 mm
05:00 AM 39.2°F4.0°C 36.5°F2.5°C 90% 1.2 mph W1.9 kmh W 6.4 mph10.3 kmh 29.45 in997.3 mb 0.00 in0.0 mm 0.00 in0.0 mm 0.00 in0.0 mm
04:45 AM 39.0°F3.9°C 36.3°F2.4°C 90% 1.8 mph W2.9 kmh W 6.4 mph10.3 kmh 29.45 in997.3 mb 0.00 in0.0 mm 0.00 in0.0 mm 0.00 in0.0 mm
04:30 AM 38.7°F3.7°C 36.0°F2.2°C 90% 2.0 mph WSW3.2 kmh WSW 8.9 mph14.3 kmh 29.45 in997.3 mb 0.00 in0.0 mm 0.00 in0.0 mm 0.00 in0.0 mm
04:15 AM 38.7°F3.7°C 35.7°F2.1°C 89% 2.1 mph W3.4 kmh W 7.5 mph12.1 kmh 29.45 in997.3 mb 0.00 in0.0 mm 0.00 in0.0 mm 0.00 in0.0 mm
04:00 AM 38.7°F3.7°C 35.7°F2.1°C 89% 0.1 mph W0.2 kmh W 5.0 mph8.0 kmh 29.47 in998.0 mb 0.00 in0.0 mm 0.00 in0.0 mm 0.00 in0.0 mm
03:45 AM 38.8°F3.8°C 35.9°F2.2°C 89% 2.4 mph W3.9 kmh W 9.3 mph15.0 kmh 29.47 in998.0 mb 0.00 in0.0 mm 0.00 in0.0 mm 0.00 in0.0 mm
03:30 AM 39.2°F4.0°C 36.2°F2.3°C 89% 2.3 mph W3.7 kmh W 6.8 mph10.9 kmh 29.47 in998.0 mb 0.00 in0.0 mm 0.00 in0.0 mm 0.00 in0.0 mm
03:15 AM 39.4°F4.1°C 36.7°F2.6°C 90% 3.0 mph W4.8 kmh W 9.7 mph15.6 kmh 29.47 in998.0 mb 0.00 in0.0 mm 0.00 in0.0 mm 0.00 in0.0 mm
03:00 AM 39.6°F4.2°C 36.6°F2.6°C 89% 4.2 mph W6.8 kmh W 9.7 mph15.6 kmh 29.47 in998.0 mb 0.00 in0.0 mm 0.00 in0.0 mm 0.00 in0.0 mm
02:45 AM 39.6°F4.2°C 36.6°F2.6°C 89% 4.3 mph W6.9 kmh W 14.0 mph22.5 kmh 29.45 in997.3 mb 0.00 in0.0 mm 0.00 in0.0 mm 0.00 in0.0 mm
02:30 AM 39.6°F4.2°C 36.6°F2.6°C 89% 4.5 mph W7.2 kmh W 12.2 mph19.6 kmh 29.45 in997.3 mb 0.00 in0.0 mm 0.00 in0.0 mm 0.00 in0.0 mm
02:15 AM 39.6°F4.2°C 36.6°F2.6°C 89% 4.7 mph W7.6 kmh W 9.7 mph15.6 kmh 29.47 in998.0 mb 0.00 in0.0 mm 0.00 in0.0 mm 0.00 in0.0 mm
02:00 AM 39.4°F4.1°C 36.4°F2.4°C 89% 5.2 mph W8.4 kmh W 10.4 mph16.7 kmh 29.47 in998.0 mb 0.00 in0.0 mm 0.00 in0.0 mm 0.00 in0.0 mm
01:45 AM 39.2°F4.0°C 35.9°F2.2°C 88% 5.4 mph W8.7 kmh W 10.0 mph16.1 kmh 29.47 in998.0 mb 0.00 in0.0 mm 0.00 in0.0 mm 0.00 in0.0 mm
01:30 AM 39.2°F4.0°C 35.9°F2.2°C 88% 5.2 mph W8.4 kmh W 9.3 mph15.0 kmh 29.45 in997.3 mb 0.00 in0.0 mm 0.00 in0.0 mm 0.00 in0.0 mm
01:15 AM 39.2°F4.0°C 35.7°F2.1°C 87% 5.5 mph W8.9 kmh W 15.7 mph25.3 kmh 29.47 in998.0 mb 0.00 in0.0 mm 0.00 in0.0 mm 0.00 in0.0 mm
01:00 AM 39.6°F4.2°C 36.0°F2.2°C 87% 5.1 mph W8.2 kmh W 10.0 mph16.1 kmh 29.45 in997.3 mb 0.00 in0.0 mm 0.00 in0.0 mm 0.00 in0.0 mm
12:45 AM 39.9°F4.4°C 36.4°F2.4°C 87% 6.3 mph W10.1 kmh W 14.0 mph22.5 kmh 29.45 in997.3 mb 0.00 in0.0 mm 0.00 in0.0 mm 0.00 in0.0 mm
12:30 AM 40.1°F4.5°C 36.5°F2.5°C 87% 6.6 mph W10.6 kmh W 13.6 mph21.9 kmh 29.45 in997.3 mb 0.00 in0.0 mm 0.00 in0.0 mm 0.00 in0.0 mm
12:15 AM 40.3°F4.6°C 36.7°F2.6°C 87% 7.2 mph W11.6 kmh W 14.3 mph23.0 kmh 29.47 in998.0 mb 0.00 in0.0 mm 0.00 in0.0 mm 0.00 in0.0 mm
12:00 AM 40.3°F4.6°C 37.0°F2.8°C 88% 8.0 mph W12.9 kmh W 16.1 mph25.9 kmh 29.47 in998.0 mb 0.00 in0.0 mm 0.00 in0.0 mm 0.00 in0.0 mm